Centertown, Kentucky
Current Conditions -  °F | °C
As of 5:55 AM on Thursday 25 Dec 2014 (Local Time) from K2I0 Reporting Station
Overcast Overcast  
Wind Chill: 35°   Ceiling: 3000
Heat Index: 40°   Visibility: 10mi
Dew Point: 35°   Wind: 9mph
Humidity: 81%   Direction: 240°WSW
Pressure: 30.07"   Gusts: NA
Location:  37.42°N, 87°W
Report Text: K2I0 251155Z AUTO 24008KT 10SM OVC030 05/02 A3007 RMK AO2 70013 T00470017 10052 20047
Loading
Personal Weather Stations






























Interactive Weather Map New forecast layout! Learn more

10-Day Weather Forecast

Advertisements
Track Severe Weather on mobile